Ignatyevo Airport
UHBB : now visible

Airfield :











YOU CAN JOIN US ON...

 
LOGIN :

Register | Disclaimer

   EN    FR    IT 

 









Legend :    VFR   Marginal VFR   IFR   Intensive IFR   Very Intensive IFR
Visi :
Ceiling :
>= 8 km
>= 3000ft
5 to 8 km
1000 to 3000 ft
1500m to 5 km
500 to 1000 ft
800 to 1500m
200 to 500 ft
< 800m
< 200 ft
Symbols :   Thunderstorms  Fog  Heavy snow  Heavy precipitations  Wind > 20 kt







- Airport Elevation : 638 ft
- IATA code : BQS


UHBB - Ignatyevo

CURRENT METAR :
  • 211800Z 36001MPS CAVOK M05/M15 Q1013 R36/090060 NOSIG RMK QFE742/0990

EXPIRED METARs :
  • 211700Z 23001MPS CAVOK M02/M16 Q1013 R36/090060 NOSIG RMK QFE742/0990
  • 211600Z 01001MPS CAVOK M03/M16 Q1013 R36/090060 NOSIG RMK QFE742/0990

TAF TAF UHBB
Valid from the 21 at 18:00 until the 22 at 18:00 UTC


211648Z 2118/2218 34003MPS 9999 SCT030
BECMG 2200/2202 11003MPS
TEMPO 2202/2209 3100 HZ
UHBB FIR / Asia



MET'MAP, your aeronautical weather chart ! - Copyright ORBIFLY December 2007 - Disclaimer

ORBIFLY MET'MAP TEAM :

Programming & Development : Alexandra Zaïnal
Concept & Development : Baudouin d'Aumeries
Co-Development & Prog : Marc-Olivier Méhu
Technical & hardware support : Manuel Goepfert

Contact : metmap@orbifly.com




SOURCES & CREDITS :

   NOAA       Earth
Advisory